sensor_id;sensor_type;location;lat;lon;timestamp;temperature;humidity
37456;DHT22;23316;50.718;7.328;2024-01-06T00:00:18;22.70;35.20
37456;DHT22;23316;50.718;7.328;2024-01-06T00:02:47;22.70;35.20
37456;DHT22;23316;50.718;7.328;2024-01-06T00:05:14;22.70;35.20
37456;DHT22;23316;50.718;7.328;2024-01-06T00:07:41;22.60;35.20
37456;DHT22;23316;50.718;7.328;2024-01-06T00:10:09;22.60;35.10
37456;DHT22;23316;50.718;7.328;2024-01-06T00:12:36;22.70;35.20
37456;DHT22;23316;50.718;7.328;2024-01-06T00:15:04;22.60;35.10
37456;DHT22;23316;50.718;7.328;2024-01-06T00:17:33;22.60;35.10
37456;DHT22;23316;50.718;7.328;2024-01-06T00:20:00;22.50;35.00
37456;DHT22;23316;50.718;7.328;2024-01-06T00:22:28;22.50;35.00
37456;DHT22;23316;50.718;7.328;2024-01-06T00:24:55;22.50;35.10
37456;DHT22;23316;50.718;7.328;2024-01-06T00:27:22;22.50;35.10
37456;DHT22;23316;50.718;7.328;2024-01-06T00:29:50;22.50;35.10
37456;DHT22;23316;50.718;7.328;2024-01-06T00:32:17;22.40;35.10
37456;DHT22;23316;50.718;7.328;2024-01-06T00:34:45;22.40;35.10
37456;DHT22;23316;50.718;7.328;2024-01-06T00:37:13;22.40;35.10
37456;DHT22;23316;50.718;7.328;2024-01-06T00:39:40;22.40;35.10
37456;DHT22;23316;50.718;7.328;2024-01-06T00:42:07;22.40;35.50
37456;DHT22;23316;50.718;7.328;2024-01-06T00:44:36;22.30;35.20
37456;DHT22;23316;50.718;7.328;2024-01-06T00:47:03;22.30;35.40
37456;DHT22;23316;50.718;7.328;2024-01-06T00:49:31;22.30;35.40
37456;DHT22;23316;50.718;7.328;2024-01-06T00:51:59;22.40;35.50
37456;DHT22;23316;50.718;7.328;2024-01-06T00:54:26;22.40;35.50
37456;DHT22;23316;50.718;7.328;2024-01-06T00:56:54;22.50;35.60
37456;DHT22;23316;50.718;7.328;2024-01-06T00:59:21;22.50;35.50
37456;DHT22;23316;50.718;7.328;2024-01-06T01:01:48;22.50;35.50
37456;DHT22;23316;50.718;7.328;2024-01-06T01:04:15;22.60;35.50
37456;DHT22;23316;50.718;7.328;2024-01-06T01:06:42;22.60;35.50
37456;DHT22;23316;50.718;7.328;2024-01-06T01:09:10;22.60;35.90
37456;DHT22;23316;50.718;7.328;2024-01-06T01:11:39;22.60;35.40
37456;DHT22;23316;50.718;7.328;2024-01-06T01:14:06;22.70;35.40
37456;DHT22;23316;50.718;7.328;2024-01-06T01:16:34;22.70;35.40
37456;DHT22;23316;50.718;7.328;2024-01-06T01:19:02;22.70;35.30
37456;DHT22;23316;50.718;7.328;2024-01-06T01:21:29;22.70;35.30
37456;DHT22;23316;50.718;7.328;2024-01-06T01:23:56;22.70;35.20
37456;DHT22;23316;50.718;7.328;2024-01-06T01:26:25;22.70;35.20
37456;DHT22;23316;50.718;7.328;2024-01-06T01:28:53;22.70;35.20
37456;DHT22;23316;50.718;7.328;2024-01-06T01:31:20;22.70;35.20
37456;DHT22;23316;50.718;7.328;2024-01-06T01:33:47;22.70;35.20
37456;DHT22;23316;50.718;7.328;2024-01-06T01:36:15;22.70;35.20
37456;DHT22;23316;50.718;7.328;2024-01-06T01:38:44;22.70;35.20
37456;DHT22;23316;50.718;7.328;2024-01-06T01:41:11;22.70;35.20
37456;DHT22;23316;50.718;7.328;2024-01-06T01:43:39;22.70;35.20
37456;DHT22;23316;50.718;7.328;2024-01-06T01:46:07;22.70;35.20
37456;DHT22;23316;50.718;7.328;2024-01-06T01:48:34;22.60;35.20
37456;DHT22;23316;50.718;7.328;2024-01-06T01:51:01;22.60;35.20
37456;DHT22;23316;50.718;7.328;2024-01-06T01:53:29;22.60;35.20
37456;DHT22;23316;50.718;7.328;2024-01-06T01:55:58;22.60;35.20
37456;DHT22;23316;50.718;7.328;2024-01-06T01:58:25;22.50;35.10
37456;DHT22;23316;50.718;7.328;2024-01-06T02:00:54;22.50;35.10
37456;DHT22;23316;50.718;7.328;2024-01-06T02:03:22;22.50;35.20
37456;DHT22;23316;50.718;7.328;2024-01-06T02:05:51;22.50;35.20
37456;DHT22;23316;50.718;7.328;2024-01-06T02:08:18;22.50;35.10
37456;DHT22;23316;50.718;7.328;2024-01-06T02:10:45;22.50;35.10
37456;DHT22;23316;50.718;7.328;2024-01-06T02:13:13;22.50;35.20
37456;DHT22;23316;50.718;7.328;2024-01-06T02:15:40;22.40;35.20
37456;DHT22;23316;50.718;7.328;2024-01-06T02:18:09;22.40;35.20
37456;DHT22;23316;50.718;7.328;2024-01-06T02:20:37;22.40;35.30
37456;DHT22;23316;50.718;7.328;2024-01-06T02:23:06;22.40;35.40
37456;DHT22;23316;50.718;7.328;2024-01-06T02:25:33;22.40;35.40
37456;DHT22;23316;50.718;7.328;2024-01-06T02:28:01;22.40;35.50
37456;DHT22;23316;50.718;7.328;2024-01-06T02:30:28;22.40;35.60
37456;DHT22;23316;50.718;7.328;2024-01-06T02:32:55;22.40;35.60
37456;DHT22;23316;50.718;7.328;2024-01-06T02:38:46;22.50;35.70
37456;DHT22;23316;50.718;7.328;2024-01-06T02:41:13;22.60;35.60
37456;DHT22;23316;50.718;7.328;2024-01-06T02:43:40;22.60;35.50
37456;DHT22;23316;50.718;7.328;2024-01-06T02:46:08;22.60;35.50
37456;DHT22;23316;50.718;7.328;2024-01-06T02:48:35;22.70;35.50
37456;DHT22;23316;50.718;7.328;2024-01-06T02:51:02;22.70;35.50
37456;DHT22;23316;50.718;7.328;2024-01-06T02:53:29;22.70;35.50
37456;DHT22;23316;50.718;7.328;2024-01-06T02:55:58;22.70;35.50
37456;DHT22;23316;50.718;7.328;2024-01-06T02:58:25;22.70;35.40
37456;DHT22;23316;50.718;7.328;2024-01-06T03:00:52;22.70;35.40
37456;DHT22;23316;50.718;7.328;2024-01-06T03:03:19;22.70;35.30
37456;DHT22;23316;50.718;7.328;2024-01-06T03:05:46;22.70;35.30
37456;DHT22;23316;50.718;7.328;2024-01-06T03:08:15;22.80;35.40
37456;DHT22;23316;50.718;7.328;2024-01-06T03:10:43;22.70;35.40
37456;DHT22;23316;50.718;7.328;2024-01-06T03:13:11;22.70;35.30
37456;DHT22;23316;50.718;7.328;2024-01-06T03:15:39;22.70;35.30
37456;DHT22;23316;50.718;7.328;2024-01-06T03:18:06;22.70;35.30
37456;DHT22;23316;50.718;7.328;2024-01-06T03:20:34;22.70;35.30
37456;DHT22;23316;50.718;7.328;2024-01-06T03:23:01;22.70;35.30
37456;DHT22;23316;50.718;7.328;2024-01-06T03:25:28;22.60;35.30
37456;DHT22;23316;50.718;7.328;2024-01-06T03:27:56;22.70;35.40
37456;DHT22;23316;50.718;7.328;2024-01-06T03:30:24;22.60;35.30
37456;DHT22;23316;50.718;7.328;2024-01-06T03:32:51;22.60;35.30
37456;DHT22;23316;50.718;7.328;2024-01-06T03:35:18;22.60;35.30
37456;DHT22;23316;50.718;7.328;2024-01-06T03:37:45;22.50;35.30
37456;DHT22;23316;50.718;7.328;2024-01-06T03:40:13;22.50;35.30
37456;DHT22;23316;50.718;7.328;2024-01-06T03:42:40;22.50;35.30
37456;DHT22;23316;50.718;7.328;2024-01-06T03:45:08;22.50;35.40
37456;DHT22;23316;50.718;7.328;2024-01-06T03:47:36;22.50;35.40
37456;DHT22;23316;50.718;7.328;2024-01-06T03:50:04;22.50;35.40
37456;DHT22;23316;50.718;7.328;2024-01-06T03:52:31;22.40;35.40
37456;DHT22;23316;50.718;7.328;2024-01-06T03:54:58;22.40;35.40
37456;DHT22;23316;50.718;7.328;2024-01-06T03:57:25;22.40;35.40
37456;DHT22;23316;50.718;7.328;2024-01-06T03:59:53;22.40;35.50
37456;DHT22;23316;50.718;7.328;2024-01-06T04:02:20;22.30;35.50
37456;DHT22;23316;50.718;7.328;2024-01-06T04:04:48;22.30;35.60
37456;DHT22;23316;50.718;7.328;2024-01-06T04:07:15;22.30;35.60
37456;DHT22;23316;50.718;7.328;2024-01-06T04:19:51;22.60;35.70
37456;DHT22;23316;50.718;7.328;2024-01-06T04:22:18;22.60;35.70
37456;DHT22;23316;50.718;7.328;2024-01-06T04:24:46;22.70;35.50
37456;DHT22;23316;50.718;7.328;2024-01-06T04:27:13;22.60;35.20
37456;DHT22;23316;50.718;7.328;2024-01-06T04:29:40;22.60;35.00
37456;DHT22;23316;50.718;7.328;2024-01-06T04:32:07;22.60;35.20
37456;DHT22;23316;50.718;7.328;2024-01-06T04:34:34;22.60;35.30
37456;DHT22;23316;50.718;7.328;2024-01-06T04:37:03;22.70;35.30
37456;DHT22;23316;50.718;7.328;2024-01-06T04:39:30;22.70;35.40
37456;DHT22;23316;50.718;7.328;2024-01-06T04:41:57;22.70;35.40
37456;DHT22;23316;50.718;7.328;2024-01-06T04:44:24;22.70;35.40
37456;DHT22;23316;50.718;7.328;2024-01-06T04:46:51;22.70;35.40
37456;DHT22;23316;50.718;7.328;2024-01-06T04:49:19;22.70;35.40
37456;DHT22;23316;50.718;7.328;2024-01-06T04:51:47;22.70;35.50
37456;DHT22;23316;50.718;7.328;2024-01-06T04:54:15;22.70;35.40
37456;DHT22;23316;50.718;7.328;2024-01-06T04:56:43;22.70;35.40
37456;DHT22;23316;50.718;7.328;2024-01-06T04:59:10;22.70;35.50
37456;DHT22;23316;50.718;7.328;2024-01-06T05:01:37;22.70;35.50
37456;DHT22;23316;50.718;7.328;2024-01-06T05:04:04;22.60;35.40
37456;DHT22;23316;50.718;7.328;2024-01-06T05:06:31;22.60;35.40
37456;DHT22;23316;50.718;7.328;2024-01-06T05:08:58;22.60;35.40
37456;DHT22;23316;50.718;7.328;2024-01-06T05:11:27;22.60;35.40
37456;DHT22;23316;50.718;7.328;2024-01-06T05:13:54;22.60;35.40
37456;DHT22;23316;50.718;7.328;2024-01-06T05:16:21;22.60;35.50
37456;DHT22;23316;50.718;7.328;2024-01-06T05:18:48;22.60;35.50
37456;DHT22;23316;50.718;7.328;2024-01-06T05:21:16;22.50;35.40
37456;DHT22;23316;50.718;7.328;2024-01-06T05:23:43;22.60;35.50
37456;DHT22;23316;50.718;7.328;2024-01-06T05:26:10;22.50;35.50
37456;DHT22;23316;50.718;7.328;2024-01-06T05:28:40;22.50;35.50
37456;DHT22;23316;50.718;7.328;2024-01-06T05:31:08;22.50;35.50
37456;DHT22;23316;50.718;7.328;2024-01-06T05:33:35;22.50;35.50
37456;DHT22;23316;50.718;7.328;2024-01-06T05:36:03;22.40;35.50
37456;DHT22;23316;50.718;7.328;2024-01-06T05:38:30;22.40;35.50
37456;DHT22;23316;50.718;7.328;2024-01-06T05:40:57;22.40;35.50
37456;DHT22;23316;50.718;7.328;2024-01-06T05:43:24;22.40;35.50
37456;DHT22;23316;50.718;7.328;2024-01-06T05:45:53;22.40;36.20
37456;DHT22;23316;50.718;7.328;2024-01-06T05:48:20;22.40;35.70
37456;DHT22;23316;50.718;7.328;2024-01-06T05:50:47;22.30;35.70
37456;DHT22;23316;50.718;7.328;2024-01-06T05:53:14;22.30;35.70
37456;DHT22;23316;50.718;7.328;2024-01-06T05:55:44;22.30;35.80
37456;DHT22;23316;50.718;7.328;2024-01-06T05:58:11;22.30;35.80
37456;DHT22;23316;50.718;7.328;2024-01-06T06:00:39;22.20;35.80
37456;DHT22;23316;50.718;7.328;2024-01-06T06:03:07;22.20;35.80
37456;DHT22;23316;50.718;7.328;2024-01-06T06:05:34;22.20;35.80
37456;DHT22;23316;50.718;7.328;2024-01-06T06:08:01;22.20;35.70
37456;DHT22;23316;50.718;7.328;2024-01-06T06:10:28;22.20;35.80
37456;DHT22;23316;50.718;7.328;2024-01-06T06:13:06;22.10;35.80
37456;DHT22;23316;50.718;7.328;2024-01-06T06:15:36;22.10;35.90
37456;DHT22;23316;50.718;7.328;2024-01-06T06:18:04;22.10;35.90
37456;DHT22;23316;50.718;7.328;2024-01-06T06:20:32;22.00;36.00
37456;DHT22;23316;50.718;7.328;2024-01-06T06:22:59;22.00;36.00
37456;DHT22;23316;50.718;7.328;2024-01-06T06:25:27;22.00;36.00
37456;DHT22;23316;50.718;7.328;2024-01-06T06:27:54;22.00;36.10
37456;DHT22;23316;50.718;7.328;2024-01-06T06:30:21;22.00;36.00
37456;DHT22;23316;50.718;7.328;2024-01-06T06:32:48;21.90;36.00
37456;DHT22;23316;50.718;7.328;2024-01-06T06:35:15;21.90;36.00
37456;DHT22;23316;50.718;7.328;2024-01-06T06:37:44;21.90;36.10
37456;DHT22;23316;50.718;7.328;2024-01-06T06:40:11;21.90;36.10
37456;DHT22;23316;50.718;7.328;2024-01-06T06:42:38;21.80;36.00
37456;DHT22;23316;50.718;7.328;2024-01-06T06:45:06;21.90;36.10
37456;DHT22;23316;50.718;7.328;2024-01-06T06:47:33;21.80;36.20
37456;DHT22;23316;50.718;7.328;2024-01-06T06:50:01;21.80;36.20
37456;DHT22;23316;50.718;7.328;2024-01-06T06:52:28;21.80;36.20
37456;DHT22;23316;50.718;7.328;2024-01-06T06:54:56;21.70;36.20
37456;DHT22;23316;50.718;7.328;2024-01-06T06:57:23;21.70;36.30
37456;DHT22;23316;50.718;7.328;2024-01-06T06:59:51;21.70;36.30
37456;DHT22;23316;50.718;7.328;2024-01-06T07:02:18;21.70;36.30
37456;DHT22;23316;50.718;7.328;2024-01-06T07:04:45;21.70;36.30
37456;DHT22;23316;50.718;7.328;2024-01-06T07:07:12;21.70;36.30
37456;DHT22;23316;50.718;7.328;2024-01-06T07:09:40;21.70;36.40
37456;DHT22;23316;50.718;7.328;2024-01-06T07:12:08;21.60;36.30
37456;DHT22;23316;50.718;7.328;2024-01-06T07:14:35;21.60;36.30
37456;DHT22;23316;50.718;7.328;2024-01-06T07:17:03;21.60;36.40
37456;DHT22;23316;50.718;7.328;2024-01-06T07:19:32;21.60;36.50
37456;DHT22;23316;50.718;7.328;2024-01-06T07:21:59;21.60;36.50
37456;DHT22;23316;50.718;7.328;2024-01-06T07:24:26;21.50;36.50
37456;DHT22;23316;50.718;7.328;2024-01-06T07:26:53;21.50;36.50
37456;DHT22;23316;50.718;7.328;2024-01-06T07:29:23;21.50;36.50
37456;DHT22;23316;50.718;7.328;2024-01-06T07:31:51;21.50;36.50
37456;DHT22;23316;50.718;7.328;2024-01-06T07:34:18;21.50;36.50
37456;DHT22;23316;50.718;7.328;2024-01-06T07:36:45;21.50;36.50
37456;DHT22;23316;50.718;7.328;2024-01-06T07:39:13;21.50;36.60
37456;DHT22;23316;50.718;7.328;2024-01-06T07:41:40;21.40;36.60
37456;DHT22;23316;50.718;7.328;2024-01-06T07:44:07;21.50;36.70
37456;DHT22;23316;50.718;7.328;2024-01-06T07:46:37;21.50;36.80
37456;DHT22;23316;50.718;7.328;2024-01-06T07:49:05;21.50;36.80
37456;DHT22;23316;50.718;7.328;2024-01-06T07:51:34;21.50;36.90
37456;DHT22;23316;50.718;7.328;2024-01-06T07:54:38;21.40;36.90
37456;DHT22;23316;50.718;7.328;2024-01-06T07:57:05;21.40;36.90
37456;DHT22;23316;50.718;7.328;2024-01-06T07:59:32;21.40;36.90
37456;DHT22;23316;50.718;7.328;2024-01-06T08:02:01;21.40;36.90
37456;DHT22;23316;50.718;7.328;2024-01-06T08:04:28;21.40;36.90
37456;DHT22;23316;50.718;7.328;2024-01-06T08:06:56;21.40;36.90
37456;DHT22;23316;50.718;7.328;2024-01-06T08:09:24;21.40;36.90
37456;DHT22;23316;50.718;7.328;2024-01-06T08:11:51;21.40;36.90
37456;DHT22;23316;50.718;7.328;2024-01-06T08:14:19;21.30;36.80
37456;DHT22;23316;50.718;7.328;2024-01-06T08:16:46;21.30;36.90
37456;DHT22;23316;50.718;7.328;2024-01-06T08:19:14;21.40;37.00
37456;DHT22;23316;50.718;7.328;2024-01-06T08:21:42;21.30;36.90
37456;DHT22;23316;50.718;7.328;2024-01-06T08:24:09;21.30;36.90
37456;DHT22;23316;50.718;7.328;2024-01-06T08:26:37;21.30;36.90
37456;DHT22;23316;50.718;7.328;2024-01-06T08:29:04;21.30;36.90
37456;DHT22;23316;50.718;7.328;2024-01-06T08:31:31;21.30;37.00
37456;DHT22;23316;50.718;7.328;2024-01-06T08:33:59;21.30;37.00
37456;DHT22;23316;50.718;7.328;2024-01-06T08:36:29;21.20;36.90
37456;DHT22;23316;50.718;7.328;2024-01-06T08:38:57;21.20;36.90
37456;DHT22;23316;50.718;7.328;2024-01-06T08:41:24;21.20;37.00
37456;DHT22;23316;50.718;7.328;2024-01-06T08:43:51;21.20;37.00
37456;DHT22;23316;50.718;7.328;2024-01-06T08:46:18;21.20;36.90
37456;DHT22;23316;50.718;7.328;2024-01-06T08:48:45;21.20;36.90
37456;DHT22;23316;50.718;7.328;2024-01-06T08:51:12;21.20;36.90
37456;DHT22;23316;50.718;7.328;2024-01-06T08:53:41;21.20;36.90
37456;DHT22;23316;50.718;7.328;2024-01-06T08:56:08;21.10;36.90
37456;DHT22;23316;50.718;7.328;2024-01-06T08:58:36;21.10;36.90
37456;DHT22;23316;50.718;7.328;2024-01-06T09:01:03;21.10;37.00
37456;DHT22;23316;50.718;7.328;2024-01-06T09:03:30;21.10;37.10
37456;DHT22;23316;50.718;7.328;2024-01-06T09:05:57;21.10;37.20
37456;DHT22;23316;50.718;7.328;2024-01-06T09:08:24;21.10;37.30
37456;DHT22;23316;50.718;7.328;2024-01-06T09:10:53;21.20;37.40
37456;DHT22;23316;50.718;7.328;2024-01-06T09:13:23;21.20;37.50
37456;DHT22;23316;50.718;7.328;2024-01-06T09:15:50;21.30;37.60
37456;DHT22;23316;50.718;7.328;2024-01-06T09:18:18;21.40;37.70
37456;DHT22;23316;50.718;7.328;2024-01-06T09:20:45;21.50;37.80
37456;DHT22;23316;50.718;7.328;2024-01-06T09:23:13;21.60;37.80
37456;DHT22;23316;50.718;7.328;2024-01-06T09:25:40;21.60;37.80
37456;DHT22;23316;50.718;7.328;2024-01-06T09:28:09;21.70;38.30
37456;DHT22;23316;50.718;7.328;2024-01-06T09:30:36;21.80;37.70
37456;DHT22;23316;50.718;7.328;2024-01-06T09:33:04;21.90;37.80
37456;DHT22;23316;50.718;7.328;2024-01-06T09:35:31;22.00;37.90
37456;DHT22;23316;50.718;7.328;2024-01-06T09:37:58;22.10;37.90
37456;DHT22;23316;50.718;7.328;2024-01-06T09:40:25;22.20;37.80
37456;DHT22;23316;50.718;7.328;2024-01-06T09:42:53;22.30;37.70
37456;DHT22;23316;50.718;7.328;2024-01-06T09:45:22;22.30;37.60
37456;DHT22;23316;50.718;7.328;2024-01-06T09:47:51;22.40;37.50
37456;DHT22;23316;50.718;7.328;2024-01-06T09:50:19;22.50;37.50
37456;DHT22;23316;50.718;7.328;2024-01-06T09:52:47;22.50;37.40
37456;DHT22;23316;50.718;7.328;2024-01-06T09:55:23;22.60;37.30
37456;DHT22;23316;50.718;7.328;2024-01-06T09:57:52;22.70;36.30
37456;DHT22;23316;50.718;7.328;2024-01-06T10:00:20;22.60;35.50
37456;DHT22;23316;50.718;7.328;2024-01-06T10:02:49;22.60;35.50
37456;DHT22;23316;50.718;7.328;2024-01-06T10:05:17;22.50;35.30
37456;DHT22;23316;50.718;7.328;2024-01-06T10:07:45;22.50;35.50
37456;DHT22;23316;50.718;7.328;2024-01-06T10:10:12;22.50;35.80
37456;DHT22;23316;50.718;7.328;2024-01-06T10:12:40;22.50;36.00
37456;DHT22;23316;50.718;7.328;2024-01-06T10:15:09;22.50;36.10
37456;DHT22;23316;50.718;7.328;2024-01-06T10:17:37;22.50;36.10
37456;DHT22;23316;50.718;7.328;2024-01-06T10:20:09;22.60;36.30
37456;DHT22;23316;50.718;7.328;2024-01-06T10:22:37;22.60;36.20
37456;DHT22;23316;50.718;7.328;2024-01-06T10:25:05;22.60;36.20
37456;DHT22;23316;50.718;7.328;2024-01-06T10:27:34;22.70;36.20
37456;DHT22;23316;50.718;7.328;2024-01-06T10:30:05;22.80;36.20
37456;DHT22;23316;50.718;7.328;2024-01-06T10:32:33;22.80;36.20
37456;DHT22;23316;50.718;7.328;2024-01-06T10:35:01;22.80;36.00
37456;DHT22;23316;50.718;7.328;2024-01-06T10:37:30;22.90;35.90
37456;DHT22;23316;50.718;7.328;2024-01-06T10:40:08;22.90;35.70
37456;DHT22;23316;50.718;7.328;2024-01-06T10:42:36;22.90;35.70
37456;DHT22;23316;50.718;7.328;2024-01-06T10:45:07;23.00;35.70
37456;DHT22;23316;50.718;7.328;2024-01-06T10:47:35;23.00;35.60
37456;DHT22;23316;50.718;7.328;2024-01-06T10:50:03;23.00;36.10
37456;DHT22;23316;50.718;7.328;2024-01-06T10:52:32;23.00;35.60
37456;DHT22;23316;50.718;7.328;2024-01-06T10:54:59;23.00;35.70
37456;DHT22;23316;50.718;7.328;2024-01-06T10:57:27;23.00;35.70
37456;DHT22;23316;50.718;7.328;2024-01-06T10:59:59;23.00;35.60
37456;DHT22;23316;50.718;7.328;2024-01-06T11:02:26;23.00;35.50
37456;DHT22;23316;50.718;7.328;2024-01-06T11:04:54;23.00;35.50
37456;DHT22;23316;50.718;7.328;2024-01-06T11:07:23;23.00;35.50
37456;DHT22;23316;50.718;7.328;2024-01-06T11:09:57;23.00;35.70
37456;DHT22;23316;50.718;7.328;2024-01-06T11:12:25;23.00;35.90
37456;DHT22;23316;50.718;7.328;2024-01-06T11:14:52;23.00;35.90
37456;DHT22;23316;50.718;7.328;2024-01-06T11:17:49;23.00;35.70
37456;DHT22;23316;50.718;7.328;2024-01-06T11:20:19;22.90;35.70
37456;DHT22;23316;50.718;7.328;2024-01-06T11:22:47;23.00;35.60
37456;DHT22;23316;50.718;7.328;2024-01-06T11:25:17;22.90;35.60
37456;DHT22;23316;50.718;7.328;2024-01-06T11:27:46;22.90;35.60
37456;DHT22;23316;50.718;7.328;2024-01-06T11:30:21;22.90;35.60
37456;DHT22;23316;50.718;7.328;2024-01-06T11:32:50;22.90;35.60
37456;DHT22;23316;50.718;7.328;2024-01-06T11:35:20;22.80;35.60
37456;DHT22;23316;50.718;7.328;2024-01-06T11:37:55;22.80;35.60
37456;DHT22;23316;50.718;7.328;2024-01-06T11:40:29;22.80;35.50
37456;DHT22;23316;50.718;7.328;2024-01-06T11:43:00;22.70;35.40
37456;DHT22;23316;50.718;7.328;2024-01-06T11:45:28;22.70;35.40
37456;DHT22;23316;50.718;7.328;2024-01-06T11:47:57;22.70;35.50
37456;DHT22;23316;50.718;7.328;2024-01-06T11:50:25;22.60;35.40
37456;DHT22;23316;50.718;7.328;2024-01-06T11:52:52;22.60;35.40
37456;DHT22;23316;50.718;7.328;2024-01-06T11:55:20;22.60;35.50
37456;DHT22;23316;50.718;7.328;2024-01-06T11:57:49;22.50;35.50
37456;DHT22;23316;50.718;7.328;2024-01-06T12:00:17;22.50;35.40
37456;DHT22;23316;50.718;7.328;2024-01-06T12:02:45;22.50;35.90
37456;DHT22;23316;50.718;7.328;2024-01-06T12:05:13;22.50;35.40
37456;DHT22;23316;50.718;7.328;2024-01-06T12:07:42;22.40;35.40
37456;DHT22;23316;50.718;7.328;2024-01-06T12:10:09;22.40;35.50
37456;DHT22;23316;50.718;7.328;2024-01-06T12:12:38;22.40;35.50
37456;DHT22;23316;50.718;7.328;2024-01-06T12:15:07;22.30;35.50
37456;DHT22;23316;50.718;7.328;2024-01-06T12:17:35;22.30;35.50
37456;DHT22;23316;50.718;7.328;2024-01-06T12:20:04;22.30;35.60
37456;DHT22;23316;50.718;7.328;2024-01-06T12:22:31;22.30;35.60
37456;DHT22;23316;50.718;7.328;2024-01-06T12:24:59;22.30;35.70
37456;DHT22;23316;50.718;7.328;2024-01-06T12:27:26;22.30;35.90
37456;DHT22;23316;50.718;7.328;2024-01-06T12:29:54;22.30;35.90
37456;DHT22;23316;50.718;7.328;2024-01-06T12:32:23;22.30;36.00
37456;DHT22;23316;50.718;7.328;2024-01-06T12:34:51;22.30;35.20
37456;DHT22;23316;50.718;7.328;2024-01-06T12:37:18;22.30;35.60
37456;DHT22;23316;50.718;7.328;2024-01-06T12:39:47;22.30;35.80
37456;DHT22;23316;50.718;7.328;2024-01-06T12:42:15;22.30;36.10
37456;DHT22;23316;50.718;7.328;2024-01-06T12:44:43;22.40;36.30
37456;DHT22;23316;50.718;7.328;2024-01-06T12:47:10;22.40;36.50
37456;DHT22;23316;50.718;7.328;2024-01-06T12:49:39;22.40;36.60
37456;DHT22;23316;50.718;7.328;2024-01-06T12:52:06;22.40;36.60
37456;DHT22;23316;50.718;7.328;2024-01-06T12:54:34;22.40;36.70
37456;DHT22;23316;50.718;7.328;2024-01-06T12:57:01;22.40;36.80
37456;DHT22;23316;50.718;7.328;2024-01-06T12:59:29;22.40;36.90
37456;DHT22;23316;50.718;7.328;2024-01-06T13:01:57;22.40;37.00
37456;DHT22;23316;50.718;7.328;2024-01-06T13:04:24;22.40;37.10
37456;DHT22;23316;50.718;7.328;2024-01-06T13:06:53;22.40;37.10
37456;DHT22;23316;50.718;7.328;2024-01-06T13:09:21;22.40;37.20
37456;DHT22;23316;50.718;7.328;2024-01-06T13:11:49;22.40;37.30
37456;DHT22;23316;50.718;7.328;2024-01-06T13:14:17;22.40;37.40
37456;DHT22;23316;50.718;7.328;2024-01-06T13:16:44;22.30;37.40
37456;DHT22;23316;50.718;7.328;2024-01-06T13:19:12;22.30;37.50
37456;DHT22;23316;50.718;7.328;2024-01-06T13:21:39;22.30;37.60
37456;DHT22;23316;50.718;7.328;2024-01-06T13:24:08;22.30;37.70
37456;DHT22;23316;50.718;7.328;2024-01-06T13:26:36;22.30;37.70
37456;DHT22;23316;50.718;7.328;2024-01-06T13:29:03;22.30;37.80
37456;DHT22;23316;50.718;7.328;2024-01-06T13:31:30;22.30;37.80
37456;DHT22;23316;50.718;7.328;2024-01-06T13:33:58;22.30;37.90
37456;DHT22;23316;50.718;7.328;2024-01-06T13:36:26;22.30;38.00
37456;DHT22;23316;50.718;7.328;2024-01-06T13:38:53;22.30;38.20
37456;DHT22;23316;50.718;7.328;2024-01-06T13:41:22;22.20;38.20
37456;DHT22;23316;50.718;7.328;2024-01-06T13:43:50;22.20;38.30
37456;DHT22;23316;50.718;7.328;2024-01-06T13:46:17;22.20;38.30
37456;DHT22;23316;50.718;7.328;2024-01-06T13:48:44;22.20;38.30
37456;DHT22;23316;50.718;7.328;2024-01-06T13:51:12;22.20;38.30
37456;DHT22;23316;50.718;7.328;2024-01-06T13:53:39;22.20;38.20
37456;DHT22;23316;50.718;7.328;2024-01-06T13:56:06;22.20;38.10
37456;DHT22;23316;50.718;7.328;2024-01-06T13:58:35;22.20;37.90
37456;DHT22;23316;50.718;7.328;2024-01-06T14:01:04;22.20;37.80
37456;DHT22;23316;50.718;7.328;2024-01-06T14:03:31;22.20;37.70
37456;DHT22;23316;50.718;7.328;2024-01-06T14:05:58;22.30;37.70
37456;DHT22;23316;50.718;7.328;2024-01-06T14:08:26;22.30;37.90
37456;DHT22;23316;50.718;7.328;2024-01-06T14:10:53;22.30;37.90
37456;DHT22;23316;50.718;7.328;2024-01-06T14:13:20;22.30;37.90
37456;DHT22;23316;50.718;7.328;2024-01-06T14:15:48;22.30;38.00
37456;DHT22;23316;50.718;7.328;2024-01-06T14:18:16;22.40;37.90
37456;DHT22;23316;50.718;7.328;2024-01-06T14:20:43;22.40;37.80
37456;DHT22;23316;50.718;7.328;2024-01-06T14:23:10;22.40;37.70
37456;DHT22;23316;50.718;7.328;2024-01-06T14:25:37;22.40;37.70
37456;DHT22;23316;50.718;7.328;2024-01-06T14:28:05;22.40;37.60
37456;DHT22;23316;50.718;7.328;2024-01-06T14:30:32;22.40;37.70
37456;DHT22;23316;50.718;7.328;2024-01-06T14:33:01;22.40;37.70
37456;DHT22;23316;50.718;7.328;2024-01-06T14:35:29;22.40;37.70
37456;DHT22;23316;50.718;7.328;2024-01-06T14:37:56;22.40;37.70
37456;DHT22;23316;50.718;7.328;2024-01-06T14:40:23;22.40;37.80
37456;DHT22;23316;50.718;7.328;2024-01-06T14:42:50;22.40;37.80
37456;DHT22;23316;50.718;7.328;2024-01-06T14:45:17;22.40;37.80
37456;DHT22;23316;50.718;7.328;2024-01-06T14:47:45;22.40;37.80
37456;DHT22;23316;50.718;7.328;2024-01-06T14:50:13;22.40;37.80
37456;DHT22;23316;50.718;7.328;2024-01-06T14:52:41;22.40;37.80
37456;DHT22;23316;50.718;7.328;2024-01-06T14:55:08;22.40;37.90
37456;DHT22;23316;50.718;7.328;2024-01-06T14:57:36;22.30;37.80
37456;DHT22;23316;50.718;7.328;2024-01-06T15:00:04;22.30;37.80
37456;DHT22;23316;50.718;7.328;2024-01-06T15:02:31;22.30;37.80
37456;DHT22;23316;50.718;7.328;2024-01-06T15:04:58;22.30;37.90
37456;DHT22;23316;50.718;7.328;2024-01-06T15:07:27;22.30;37.90
37456;DHT22;23316;50.718;7.328;2024-01-06T15:09:54;22.30;38.00
37456;DHT22;23316;50.718;7.328;2024-01-06T15:12:21;22.20;37.90
37456;DHT22;23316;50.718;7.328;2024-01-06T15:14:48;22.20;38.00
37456;DHT22;23316;50.718;7.328;2024-01-06T15:17:16;22.20;38.00
37456;DHT22;23316;50.718;7.328;2024-01-06T15:19:44;22.20;38.00
37456;DHT22;23316;50.718;7.328;2024-01-06T15:22:12;22.20;38.00
37456;DHT22;23316;50.718;7.328;2024-01-06T15:24:40;22.20;37.90
37456;DHT22;23316;50.718;7.328;2024-01-06T15:27:09;22.30;38.00
37456;DHT22;23316;50.718;7.328;2024-01-06T15:29:36;22.30;38.00
37456;DHT22;23316;50.718;7.328;2024-01-06T15:32:04;22.30;38.00
37456;DHT22;23316;50.718;7.328;2024-01-06T15:34:31;22.40;38.40
37456;DHT22;23316;50.718;7.328;2024-01-06T15:36:59;22.30;37.70
37456;DHT22;23316;50.718;7.328;2024-01-06T15:39:26;22.40;37.70
37456;DHT22;23316;50.718;7.328;2024-01-06T15:41:55;22.40;37.60
37456;DHT22;23316;50.718;7.328;2024-01-06T15:44:22;22.40;37.50
37456;DHT22;23316;50.718;7.328;2024-01-06T15:46:49;22.50;37.50